sensor_id;sensor_type;location;lat;lon;timestamp;pressure;altitude;pressure_sealevel;temperature;humidity
39083;BME280;24834;44.444;26.098;2022-08-14T00:04:02;99855.50;;;27.36;
39083;BME280;24834;44.444;26.098;2022-08-14T00:10:26;99847.97;;;27.24;
39083;BME280;24834;44.444;26.098;2022-08-14T00:16:48;99836.19;;;27.15;
39083;BME280;24834;44.444;26.098;2022-08-14T00:22:57;99835.75;;;26.97;
39083;BME280;24834;44.444;26.098;2022-08-14T00:29:15;99823.59;;;26.85;
39083;BME280;24834;44.444;26.098;2022-08-14T00:35:18;99827.63;;;26.74;
39083;BME280;24834;44.444;26.098;2022-08-14T00:41:20;99823.09;;;26.67;
39083;BME280;24834;44.444;26.098;2022-08-14T00:47:24;99825.06;;;26.63;
39083;BME280;24834;44.444;26.098;2022-08-14T00:53:30;99813.03;;;26.41;
39083;BME280;24834;44.444;26.098;2022-08-14T00:59:33;99813.91;;;26.34;
39083;BME280;24834;44.444;26.098;2022-08-14T01:05:41;99800.50;;;26.31;
39083;BME280;24834;44.444;26.098;2022-08-14T01:11:53;99812.88;;;26.25;
39083;BME280;24834;44.444;26.098;2022-08-14T01:18:04;99809.59;;;26.14;
39083;BME280;24834;44.444;26.098;2022-08-14T01:24:29;99817.38;;;26.05;
39083;BME280;24834;44.444;26.098;2022-08-14T01:30:35;99815.91;;;25.97;
39083;BME280;24834;44.444;26.098;2022-08-14T01:36:40;99810.91;;;25.99;
39083;BME280;24834;44.444;26.098;2022-08-14T01:42:45;99806.22;;;26.03;
39083;BME280;24834;44.444;26.098;2022-08-14T01:48:49;99816.63;;;26.04;
39083;BME280;24834;44.444;26.098;2022-08-14T01:54:53;99813.69;;;25.95;
39083;BME280;24834;44.444;26.098;2022-08-14T02:00:59;99817.22;;;25.89;
39083;BME280;24834;44.444;26.098;2022-08-14T02:07:03;99821.50;;;25.83;
39083;BME280;24834;44.444;26.098;2022-08-14T02:13:14;99830.28;;;25.87;
39083;BME280;24834;44.444;26.098;2022-08-14T02:19:23;99827.22;;;25.85;
39083;BME280;24834;44.444;26.098;2022-08-14T02:25:29;99825.81;;;25.73;
39083;BME280;24834;44.444;26.098;2022-08-14T02:31:36;99827.78;;;25.69;
39083;BME280;24834;44.444;26.098;2022-08-14T02:37:52;99825.84;;;25.69;
39083;BME280;24834;44.444;26.098;2022-08-14T02:43:56;99832.13;;;25.59;
39083;BME280;24834;44.444;26.098;2022-08-14T02:50:03;99837.94;;;25.54;
39083;BME280;24834;44.444;26.098;2022-08-14T02:56:10;99827.41;;;25.67;
39083;BME280;24834;44.444;26.098;2022-08-14T03:02:36;99831.88;;;25.43;
39083;BME280;24834;44.444;26.098;2022-08-14T03:08:59;99822.72;;;25.37;
39083;BME280;24834;44.444;26.098;2022-08-14T03:15:05;99830.41;;;25.39;
39083;BME280;24834;44.444;26.098;2022-08-14T03:21:18;99834.63;;;25.36;
39083;BME280;24834;44.444;26.098;2022-08-14T03:27:24;99836.13;;;25.44;
39083;BME280;24834;44.444;26.098;2022-08-14T03:33:50;99834.47;;;25.54;
39083;BME280;24834;44.444;26.098;2022-08-14T03:39:55;99842.28;;;25.45;
39083;BME280;24834;44.444;26.098;2022-08-14T03:45:58;99841.50;;;25.44;
39083;BME280;24834;44.444;26.098;2022-08-14T03:52:01;99840.78;;;25.37;
39083;BME280;24834;44.444;26.098;2022-08-14T03:58:44;99839.16;;;25.46;
39083;BME280;24834;44.444;26.098;2022-08-14T04:04:50;99835.66;;;25.49;
39083;BME280;24834;44.444;26.098;2022-08-14T04:10:58;99837.88;;;25.61;
39083;BME280;24834;44.444;26.098;2022-08-14T04:17:03;99827.97;;;25.89;
39083;BME280;24834;44.444;26.098;2022-08-14T04:23:11;99832.97;;;25.87;
39083;BME280;24834;44.444;26.098;2022-08-14T04:29:26;99834.22;;;25.79;
